createdAt,value
2016-11-15T00:00:25.281Z,0
2016-11-15T00:01:05.744Z,0
2016-11-15T00:01:46.243Z,0
2016-11-15T00:02:26.714Z,0
2016-11-15T00:03:07.202Z,0
2016-11-15T00:03:47.673Z,0
2016-11-15T00:04:28.157Z,0
2016-11-15T00:05:08.647Z,0
2016-11-15T00:05:49.125Z,0
2016-11-15T00:06:29.624Z,0
2016-11-15T00:07:10.100Z,0
2016-11-15T00:07:50.544Z,0
2016-11-15T00:08:31.011Z,0
2016-11-15T00:09:11.456Z,0
2016-11-15T00:09:51.933Z,0
2016-11-15T00:10:32.397Z,0
2016-11-15T00:11:12.909Z,0
2016-11-15T00:11:53.369Z,0
2016-11-15T00:12:33.809Z,0
2016-11-15T00:13:14.278Z,0
2016-11-15T00:13:54.790Z,0
2016-11-15T00:14:35.260Z,0
2016-11-15T00:15:15.742Z,0
2016-11-15T00:15:56.226Z,0
2016-11-15T00:16:36.807Z,0
2016-11-15T00:17:17.335Z,0
2016-11-15T00:17:57.821Z,0
2016-11-15T00:18:38.257Z,0
2016-11-15T00:19:18.720Z,0
2016-11-15T00:19:59.216Z,0
2016-11-15T00:20:39.770Z,0
2016-11-15T00:21:20.248Z,0
2016-11-15T00:22:00.758Z,0
2016-11-15T00:22:41.206Z,0
2016-11-15T00:23:21.689Z,0
2016-11-15T00:24:02.148Z,0
2016-11-15T00:24:42.611Z,0
2016-11-15T00:25:23.096Z,0
2016-11-15T00:26:03.568Z,0
2016-11-15T00:26:44.053Z,0
2016-11-15T00:27:24.561Z,0
2016-11-15T00:28:05.089Z,0
2016-11-15T00:28:45.594Z,0
2016-11-15T00:29:26.057Z,0
2016-11-15T00:30:06.511Z,0
2016-11-15T00:30:46.980Z,0
2016-11-15T00:31:27.474Z,0
2016-11-15T00:32:07.925Z,0
2016-11-15T00:32:48.398Z,0
2016-11-15T00:33:28.900Z,0
2016-11-15T00:34:09.382Z,0
2016-11-15T00:34:49.891Z,0
2016-11-15T00:35:30.361Z,0
2016-11-15T00:36:10.845Z,0
2016-11-15T00:36:51.358Z,0
2016-11-15T00:37:31.848Z,0
2016-11-15T00:38:12.341Z,0
2016-11-15T00:38:52.800Z,0
2016-11-15T00:39:33.316Z,0
2016-11-15T00:40:13.784Z,0
2016-11-15T00:40:54.284Z,0
2016-11-15T00:41:34.776Z,0
2016-11-15T00:42:15.249Z,0
2016-11-15T00:42:55.723Z,0
2016-11-15T00:43:36.196Z,0
2016-11-15T00:44:16.662Z,0
2016-11-15T00:44:57.117Z,0
2016-11-15T00:45:37.592Z,0
2016-11-15T00:46:18.084Z,0
2016-11-15T00:46:58.546Z,0
2016-11-15T00:47:39.026Z,0
2016-11-15T00:48:19.547Z,0
2016-11-15T00:48:59.986Z,0
2016-11-15T00:49:40.429Z,0
2016-11-15T00:50:20.941Z,0
2016-11-15T00:51:01.401Z,0
2016-11-15T00:51:41.894Z,0
2016-11-15T00:52:22.368Z,0
2016-11-15T00:53:02.849Z,0
2016-11-15T00:53:43.344Z,0
2016-11-15T00:54:23.798Z,0
2016-11-15T00:55:04.261Z,0
2016-11-15T00:55:44.764Z,0
2016-11-15T00:56:25.247Z,0
2016-11-15T00:57:05.706Z,0
2016-11-15T00:57:46.180Z,0
2016-11-15T00:58:26.640Z,0
2016-11-15T00:59:07.138Z,0
2016-11-15T00:59:47.585Z,0
2016-11-15T01:00:28.043Z,0
2016-11-15T01:01:08.499Z,0
2016-11-15T01:01:48.984Z,0
2016-11-15T01:02:29.450Z,0
2016-11-15T01:03:09.958Z,0
2016-11-15T01:03:50.373Z,0
2016-11-15T01:04:30.856Z,0
2016-11-15T01:05:11.338Z,0
2016-11-15T01:05:51.819Z,0
2016-11-15T01:06:32.302Z,0
2016-11-15T01:07:12.790Z,0
2016-11-15T01:07:53.253Z,0
2016-11-15T01:08:33.766Z,0
2016-11-15T01:09:14.244Z,0
2016-11-15T01:09:54.731Z,0
2016-11-15T01:10:35.220Z,0
2016-11-15T01:11:15.682Z,0
2016-11-15T01:11:56.185Z,0
2016-11-15T01:12:36.812Z,0
2016-11-15T01:13:17.290Z,0
2016-11-15T01:13:57.819Z,0
2016-11-15T01:14:38.315Z,0
2016-11-15T01:15:18.759Z,0
2016-11-15T01:15:59.274Z,0
2016-11-15T01:16:39.784Z,0
2016-11-15T01:17:20.266Z,0
2016-11-15T01:18:00.716Z,0
2016-11-15T01:18:41.193Z,0
2016-11-15T01:19:21.698Z,0
2016-11-15T01:20:02.170Z,0
2016-11-15T01:20:42.652Z,0
2016-11-15T01:21:23.111Z,0
2016-11-15T01:22:03.608Z,0
2016-11-15T01:22:44.061Z,0
2016-11-15T01:23:24.630Z,0
2016-11-15T01:24:05.062Z,0
2016-11-15T01:24:45.560Z,0
2016-11-15T01:25:26.047Z,0
2016-11-15T01:26:06.496Z,0
2016-11-15T01:26:46.981Z,0
2016-11-15T01:27:27.465Z,0
2016-11-15T01:28:07.939Z,0
2016-11-15T01:28:48.415Z,0
2016-11-15T01:29:28.898Z,0
2016-11-15T01:30:09.370Z,0
2016-11-15T01:30:49.835Z,0
2016-11-15T01:31:30.329Z,0
2016-11-15T01:32:10.807Z,0
2016-11-15T01:32:51.278Z,0
2016-11-15T01:33:31.725Z,0
2016-11-15T01:34:12.192Z,0
2016-11-15T01:34:52.706Z,0
2016-11-15T01:35:33.209Z,0
2016-11-15T01:36:13.676Z,0
2016-11-15T01:36:54.144Z,0
2016-11-15T01:37:34.652Z,0
2016-11-15T01:38:15.139Z,0
2016-11-15T01:38:55.630Z,0
2016-11-15T01:39:36.119Z,0
2016-11-15T01:40:16.594Z,0
2016-11-15T01:40:57.227Z,0
2016-11-15T01:41:37.710Z,0
2016-11-15T01:42:18.183Z,0
2016-11-15T01:42:58.638Z,0
2016-11-15T01:43:39.121Z,0
2016-11-15T01:44:19.720Z,0
2016-11-15T01:45:00.234Z,0
2016-11-15T01:45:40.734Z,0
2016-11-15T01:46:21.229Z,0
2016-11-15T01:47:01.709Z,0
2016-11-15T01:47:42.182Z,0
2016-11-15T01:48:22.676Z,0
2016-11-15T01:49:03.139Z,0
2016-11-15T01:49:43.622Z,0
2016-11-15T01:50:24.101Z,0
2016-11-15T01:51:04.635Z,0
2016-11-15T01:51:45.115Z,0
2016-11-15T01:52:25.575Z,0
2016-11-15T01:53:06.103Z,0
2016-11-15T01:55:39.704Z,0
2016-11-15T01:56:20.243Z,0
2016-11-15T01:57:00.759Z,0
2016-11-15T01:57:41.221Z,0
2016-11-15T01:58:21.715Z,0
2016-11-15T01:59:02.189Z,0
2016-11-15T01:59:42.697Z,0
2016-11-15T02:00:23.163Z,0
2016-11-15T02:01:03.667Z,0
2016-11-15T02:01:44.183Z,0
2016-11-15T02:02:24.705Z,0
2016-11-15T02:03:05.246Z,0
2016-11-15T02:03:45.760Z,0
2016-11-15T02:04:26.202Z,0
2016-11-15T02:05:06.672Z,0
2016-11-15T02:05:47.176Z,0
2016-11-15T02:06:27.655Z,0
2016-11-15T02:07:08.181Z,0
2016-11-15T02:07:48.675Z,0
2016-11-15T02:08:29.149Z,0
2016-11-15T02:09:09.661Z,0
2016-11-15T02:09:50.135Z,0
2016-11-15T02:10:30.626Z,0
2016-11-15T02:11:11.134Z,0
2016-11-15T02:11:51.634Z,0
2016-11-15T02:12:32.160Z,0
2016-11-15T02:13:12.627Z,0
2016-11-15T02:13:53.118Z,0
2016-11-15T02:14:33.587Z,0
2016-11-15T02:15:14.110Z,0
2016-11-15T02:15:54.589Z,0
2016-11-15T02:16:35.107Z,0
2016-11-15T02:17:15.582Z,0
2016-11-15T02:17:56.046Z,0
2016-11-15T02:18:36.533Z,0
2016-11-15T02:19:17.026Z,0
2016-11-15T02:19:57.549Z,0
2016-11-15T02:20:37.997Z,0
2016-11-15T02:21:18.460Z,0
2016-11-15T02:21:58.954Z,0
2016-11-15T02:22:39.446Z,0
2016-11-15T02:23:19.924Z,0
2016-11-15T02:24:00.469Z,0
2016-11-15T02:24:40.965Z,0
2016-11-15T02:25:21.435Z,0
2016-11-15T02:26:01.931Z,0
2016-11-15T02:26:42.390Z,0
2016-11-15T02:27:22.865Z,0
2016-11-15T02:28:03.337Z,0
2016-11-15T02:28:43.797Z,0
2016-11-15T02:29:24.300Z,0
2016-11-15T02:30:04.808Z,0
2016-11-15T02:30:45.285Z,0
2016-11-15T02:31:25.768Z,0
2016-11-15T02:32:06.242Z,0
2016-11-15T02:32:46.702Z,0
2016-11-15T02:33:27.159Z,0
2016-11-15T02:34:07.639Z,0
2016-11-15T02:34:48.132Z,0
2016-11-15T02:35:28.593Z,0
2016-11-15T02:36:09.087Z,0
2016-11-15T02:36:49.582Z,0
2016-11-15T02:37:30.067Z,0
2016-11-15T02:38:10.586Z,0
2016-11-15T02:38:51.070Z,0
2016-11-15T02:39:31.537Z,0
2016-11-15T02:40:11.998Z,0
2016-11-15T02:40:52.471Z,0
2016-11-15T02:41:32.956Z,0
2016-11-15T02:42:13.435Z,0
2016-11-15T02:42:53.910Z,0
2016-11-15T02:43:34.407Z,0
2016-11-15T02:44:14.909Z,0
2016-11-15T02:44:55.386Z,0
2016-11-15T02:45:35.832Z,0
2016-11-15T02:46:16.307Z,0
2016-11-15T02:46:56.778Z,0
2016-11-15T02:47:37.257Z,0
2016-11-15T02:48:17.715Z,0
2016-11-15T02:48:58.199Z,0
2016-11-15T02:49:38.687Z,0
2016-11-15T02:50:19.153Z,0
2016-11-15T02:50:59.640Z,0
2016-11-15T02:51:40.146Z,0
2016-11-15T02:52:20.600Z,0
2016-11-15T02:53:01.101Z,0
2016-11-15T02:53:41.602Z,0
2016-11-15T02:54:22.054Z,0
2016-11-15T02:55:02.522Z,0
2016-11-15T02:55:43.026Z,0
2016-11-15T02:56:23.516Z,0
2016-11-15T02:57:03.945Z,0
2016-11-15T02:57:44.459Z,0
2016-11-15T02:58:24.947Z,0
2016-11-15T02:59:05.418Z,0
2016-11-15T02:59:45.914Z,0
2016-11-15T03:00:26.398Z,0
2016-11-15T03:01:06.858Z,0
2016-11-15T03:01:47.331Z,0
2016-11-15T03:02:27.796Z,0
2016-11-15T03:03:08.274Z,0
2016-11-15T03:03:48.764Z,0
2016-11-15T03:04:29.248Z,0
2016-11-15T03:05:09.754Z,0
2016-11-15T03:05:50.235Z,0
2016-11-15T03:06:30.738Z,0
2016-11-15T03:07:11.183Z,0
2016-11-15T03:07:51.685Z,0
2016-11-15T03:08:32.174Z,0
2016-11-15T03:09:12.606Z,0
2016-11-15T03:09:53.091Z,0
2016-11-15T03:10:33.558Z,0
2016-11-15T03:11:14.065Z,0
2016-11-15T03:11:54.520Z,0
2016-11-15T03:12:34.979Z,0
2016-11-15T03:13:15.449Z,0
2016-11-15T03:13:55.934Z,0
2016-11-15T03:14:36.420Z,0
2016-11-15T03:15:16.860Z,0
2016-11-15T03:15:57.342Z,0
2016-11-15T03:16:37.823Z,0
2016-11-15T03:17:18.304Z,0
2016-11-15T03:17:58.832Z,0
2016-11-15T03:18:39.285Z,0
2016-11-15T03:19:19.809Z,0
2016-11-15T03:20:00.288Z,0
2016-11-15T03:20:40.768Z,0
2016-11-15T03:21:21.222Z,0
2016-11-15T03:22:01.718Z,0
2016-11-15T03:22:42.174Z,0
2016-11-15T03:23:22.654Z,0
2016-11-15T03:24:03.103Z,0
2016-11-15T03:24:43.583Z,0
2016-11-15T03:25:24.036Z,0
2016-11-15T03:26:04.525Z,0
2016-11-15T03:26:44.982Z,0
2016-11-15T03:27:25.443Z,0
2016-11-15T03:28:05.974Z,0
2016-11-15T03:28:46.444Z,0
2016-11-15T03:29:26.896Z,0
2016-11-15T03:30:07.379Z,0
2016-11-15T03:30:47.887Z,0
2016-11-15T03:31:28.331Z,0
2016-11-15T03:32:08.820Z,0
2016-11-15T03:32:49.340Z,0
2016-11-15T03:33:29.828Z,0
2016-11-15T03:34:10.298Z,0
2016-11-15T03:34:50.781Z,0
2016-11-15T03:35:31.266Z,0
2016-11-15T03:36:11.774Z,0
2016-11-15T03:36:52.261Z,0
2016-11-15T03:37:32.744Z,0
2016-11-15T03:38:13.206Z,0
2016-11-15T03:38:53.690Z,0
2016-11-15T03:39:34.150Z,0
2016-11-15T03:40:14.640Z,0
2016-11-15T03:40:55.139Z,0
2016-11-15T03:41:35.625Z,0
2016-11-15T03:42:16.095Z,0
2016-11-15T03:42:56.564Z,0
2016-11-15T03:43:37.063Z,0
2016-11-15T03:44:17.530Z,0
2016-11-15T03:44:57.976Z,0
2016-11-15T03:45:38.437Z,0
2016-11-15T03:46:18.906Z,0
2016-11-15T03:46:59.401Z,0
2016-11-15T03:47:39.916Z,0
2016-11-15T03:48:20.387Z,0
2016-11-15T03:49:00.854Z,0
2016-11-15T03:49:41.344Z,0
2016-11-15T03:50:21.809Z,0
2016-11-15T03:51:02.286Z,0
2016-11-15T03:51:42.786Z,0
2016-11-15T03:52:23.229Z,0
2016-11-15T03:53:03.721Z,0
2016-11-15T03:53:44.233Z,0
2016-11-15T03:54:24.710Z,0
2016-11-15T03:55:05.214Z,0
2016-11-15T03:55:45.707Z,0
2016-11-15T03:56:26.151Z,0
2016-11-15T03:57:06.649Z,0
2016-11-15T03:57:47.160Z,0
2016-11-15T03:58:27.640Z,0
2016-11-15T03:59:08.114Z,0
2016-11-15T03:59:48.605Z,0
2016-11-15T04:00:29.042Z,0
2016-11-15T04:01:09.524Z,0
2016-11-15T04:01:50.052Z,0
2016-11-15T04:02:30.566Z,0
2016-11-15T04:03:11.044Z,0
2016-11-15T04:03:51.506Z,0
2016-11-15T04:04:32.012Z,0
2016-11-15T04:05:12.512Z,0
2016-11-15T04:05:53.033Z,0
2016-11-15T04:06:33.493Z,0
2016-11-15T04:07:13.986Z,0
2016-11-15T04:07:54.491Z,0
2016-11-15T04:08:35.044Z,0
2016-11-15T04:09:15.604Z,0
2016-11-15T04:09:56.082Z,0
2016-11-15T04:10:36.579Z,0
2016-11-15T04:11:17.038Z,0
2016-11-15T04:11:57.554Z,0
2016-11-15T04:12:38.034Z,0
2016-11-15T04:13:18.486Z,0
2016-11-15T04:13:58.974Z,0
2016-11-15T04:14:39.455Z,0
2016-11-15T04:15:19.965Z,0
2016-11-15T04:16:00.454Z,0
2016-11-15T04:16:40.927Z,0
2016-11-15T04:17:21.372Z,0
2016-11-15T04:18:01.874Z,0
2016-11-15T04:18:42.314Z,0
2016-11-15T04:19:22.805Z,0
2016-11-15T04:20:03.348Z,0
2016-11-15T04:20:43.812Z,0
2016-11-15T04:21:24.280Z,0
2016-11-15T04:22:04.825Z,0
2016-11-15T04:22:45.287Z,0
2016-11-15T04:23:25.737Z,0
2016-11-15T04:24:06.216Z,0
2016-11-15T04:24:46.692Z,0
2016-11-15T04:25:27.172Z,0
2016-11-15T04:26:07.605Z,0
2016-11-15T04:26:48.108Z,0
2016-11-15T04:27:28.603Z,0
2016-11-15T04:28:09.069Z,0
2016-11-15T04:28:49.555Z,0
2016-11-15T04:29:30.064Z,0
2016-11-15T04:30:10.528Z,0
2016-11-15T04:30:51.016Z,0
2016-11-15T04:31:31.494Z,0
2016-11-15T04:32:11.975Z,0
2016-11-15T04:32:52.467Z,0
2016-11-15T04:33:32.952Z,0
2016-11-15T04:34:13.410Z,0
2016-11-15T04:34:53.925Z,0
2016-11-15T04:35:34.414Z,0
2016-11-15T04:36:14.889Z,0
2016-11-15T04:36:55.387Z,0
2016-11-15T04:37:35.891Z,0
2016-11-15T04:38:16.337Z,0
2016-11-15T04:38:56.827Z,0
2016-11-15T04:39:37.314Z,0
2016-11-15T04:40:17.813Z,0
2016-11-15T04:40:58.274Z,0
2016-11-15T04:41:38.743Z,0
2016-11-15T04:42:19.241Z,0
2016-11-15T04:42:59.723Z,0
2016-11-15T04:43:40.236Z,0
2016-11-15T04:44:20.721Z,0
2016-11-15T04:45:01.175Z,0
2016-11-15T04:45:41.667Z,0
2016-11-15T04:46:22.147Z,0
2016-11-15T04:47:02.650Z,0
2016-11-15T04:47:43.152Z,0
2016-11-15T04:48:23.614Z,0
2016-11-15T04:49:04.105Z,0
2016-11-15T04:49:44.625Z,0
2016-11-15T04:50:25.112Z,0
2016-11-15T04:51:05.614Z,0
2016-11-15T04:51:46.068Z,0
2016-11-15T04:52:26.561Z,0
2016-11-15T04:53:07.024Z,0
2016-11-15T04:53:47.506Z,0
2016-11-15T04:54:27.994Z,0
2016-11-15T04:55:08.462Z,0
2016-11-15T04:55:48.938Z,0
2016-11-15T04:56:29.421Z,0
2016-11-15T04:57:09.939Z,0
2016-11-15T04:57:50.393Z,0
2016-11-15T04:58:30.904Z,0
2016-11-15T04:59:11.357Z,0
2016-11-15T04:59:51.822Z,0
2016-11-15T05:00:32.335Z,0
2016-11-15T05:01:12.791Z,0
2016-11-15T05:01:53.265Z,0
2016-11-15T05:02:33.762Z,0
2016-11-15T05:03:14.236Z,0
2016-11-15T05:03:54.753Z,0
2016-11-15T05:04:35.221Z,0
2016-11-15T05:05:15.723Z,0
2016-11-15T05:05:56.182Z,0
2016-11-15T05:06:36.671Z,0
2016-11-15T05:07:23.681Z,0
2016-11-15T05:08:04.130Z,0
2016-11-15T05:08:44.691Z,0
2016-11-15T05:09:25.211Z,0
2016-11-15T05:10:05.689Z,0
2016-11-15T05:10:46.154Z,0
2016-11-15T05:11:26.666Z,0
2016-11-15T05:12:07.132Z,0
2016-11-15T05:12:47.603Z,0
2016-11-15T05:13:28.092Z,0
2016-11-15T05:14:08.581Z,0
2016-11-15T05:14:49.053Z,0
2016-11-15T05:15:29.544Z,0
2016-11-15T05:16:10.063Z,0
2016-11-15T05:16:50.537Z,0
2016-11-15T05:17:31.033Z,0
2016-11-15T05:18:11.520Z,0
2016-11-15T05:18:52.017Z,0
2016-11-15T05:19:32.456Z,0
2016-11-15T05:20:12.938Z,0
2016-11-15T05:20:53.430Z,0
2016-11-15T05:21:33.900Z,0
2016-11-15T05:22:14.388Z,0
2016-11-15T05:22:54.827Z,0
2016-11-15T05:23:35.353Z,0
2016-11-15T05:24:15.867Z,0
2016-11-15T05:24:56.347Z,0
2016-11-15T05:25:36.842Z,0
2016-11-15T05:26:17.336Z,0
2016-11-15T05:26:57.785Z,0
2016-11-15T05:27:38.276Z,0
2016-11-15T05:28:18.747Z,0
2016-11-15T05:28:59.255Z,0
2016-11-15T05:29:39.718Z,0
2016-11-15T05:30:20.429Z,0
2016-11-15T05:31:01.161Z,0
2016-11-15T05:31:41.891Z,0
2016-11-15T05:32:22.406Z,0
2016-11-15T05:33:02.909Z,0
2016-11-15T05:33:43.403Z,0
2016-11-15T05:34:23.881Z,0
2016-11-15T05:35:04.396Z,0
2016-11-15T05:35:44.927Z,0
2016-11-15T05:36:25.404Z,0
2016-11-15T05:37:05.849Z,0
2016-11-15T05:37:46.322Z,0
2016-11-15T05:38:26.808Z,0
2016-11-15T05:39:07.331Z,0
2016-11-15T05:39:47.836Z,0
2016-11-15T05:40:28.308Z,0
2016-11-15T05:41:08.768Z,0
2016-11-15T05:41:49.252Z,0
2016-11-15T05:42:29.733Z,0
2016-11-15T05:43:10.199Z,0
2016-11-15T05:43:50.667Z,0
2016-11-15T05:44:31.194Z,0
2016-11-15T05:45:11.650Z,0
2016-11-15T05:45:52.106Z,0
2016-11-15T05:46:32.572Z,0
2016-11-15T05:47:13.071Z,0
2016-11-15T05:47:53.552Z,0
2016-11-15T05:48:34.052Z,0
2016-11-15T05:49:14.535Z,0
2016-11-15T05:49:55.011Z,0
2016-11-15T05:50:35.487Z,0
2016-11-15T05:51:15.968Z,0
2016-11-15T05:51:56.432Z,0
2016-11-15T05:52:36.925Z,0
2016-11-15T05:53:17.400Z,0
2016-11-15T05:53:57.887Z,0
2016-11-15T05:54:38.351Z,0
2016-11-15T05:55:18.799Z,0
2016-11-15T05:55:59.281Z,0
2016-11-15T05:56:39.737Z,0
2016-11-15T05:57:20.211Z,0
2016-11-15T05:58:00.699Z,0
2016-11-15T05:58:41.215Z,0
2016-11-15T05:59:21.687Z,0
2016-11-15T06:00:02.171Z,0
2016-11-15T06:00:42.664Z,0
2016-11-15T06:01:23.139Z,0
2016-11-15T06:02:03.609Z,0
2016-11-15T06:02:44.122Z,0
2016-11-15T06:03:24.595Z,0
2016-11-15T06:04:05.125Z,0
2016-11-15T06:04:45.587Z,0
2016-11-15T06:05:26.067Z,0
2016-11-15T06:06:06.546Z,0
2016-11-15T06:06:47.168Z,0
2016-11-15T06:07:27.681Z,0
2016-11-15T06:08:08.208Z,0
2016-11-15T06:08:48.694Z,0
2016-11-15T06:09:29.177Z,0
2016-11-15T06:10:09.646Z,0
2016-11-15T06:10:50.194Z,0
2016-11-15T06:11:30.670Z,0
2016-11-15T06:12:11.162Z,0
2016-11-15T06:12:51.642Z,0
2016-11-15T06:13:32.112Z,0
2016-11-15T06:14:12.652Z,0
2016-11-15T06:14:53.153Z,0
2016-11-15T06:15:33.631Z,0
2016-11-15T06:16:14.099Z,0
2016-11-15T06:16:54.583Z,0
2016-11-15T06:17:35.114Z,0
2016-11-15T06:18:15.636Z,0
2016-11-15T06:18:56.087Z,0
2016-11-15T06:19:36.604Z,0
2016-11-15T06:20:17.084Z,0
2016-11-15T06:20:57.619Z,0
2016-11-15T06:21:38.111Z,0
2016-11-15T06:22:18.575Z,0
2016-11-15T06:22:59.055Z,0
2016-11-15T06:23:39.543Z,0
2016-11-15T06:24:20.064Z,0
2016-11-15T06:25:00.544Z,0
2016-11-15T06:25:41.018Z,0
2016-11-15T06:26:21.503Z,0
2016-11-15T06:27:01.982Z,0
2016-11-15T06:27:42.434Z,0
2016-11-15T06:28:22.895Z,0
2016-11-15T06:29:03.361Z,0
2016-11-15T06:29:43.855Z,0
2016-11-15T06:30:24.348Z,0
2016-11-15T06:31:04.795Z,0
2016-11-15T06:31:45.301Z,0
2016-11-15T06:32:25.762Z,0
2016-11-15T06:33:06.260Z,0
2016-11-15T06:33:46.777Z,0
2016-11-15T06:34:27.276Z,0
2016-11-15T06:35:07.764Z,0
2016-11-15T06:35:48.247Z,0
2016-11-15T06:36:28.721Z,0
2016-11-15T06:37:09.211Z,0
2016-11-15T06:37:49.718Z,0
2016-11-15T06:38:30.237Z,0
2016-11-15T06:39:10.714Z,0
2016-11-15T06:39:51.219Z,0
2016-11-15T06:40:31.701Z,0
2016-11-15T06:41:12.223Z,0
2016-11-15T06:41:52.708Z,0
2016-11-15T06:42:33.185Z,0
2016-11-15T06:43:13.661Z,0
2016-11-15T06:43:54.123Z,0
2016-11-15T06:44:34.615Z,0
2016-11-15T06:45:16.939Z,0
2016-11-15T06:45:58.415Z,0
2016-11-15T06:46:38.947Z,0
2016-11-15T06:47:19.520Z,0
2016-11-15T06:48:02.844Z,0
2016-11-15T06:48:43.746Z,0
2016-11-15T06:49:24.291Z,0
2016-11-15T06:50:04.821Z,0
2016-11-15T06:50:47.928Z,0
2016-11-15T06:51:28.674Z,0
2016-11-15T06:52:11.212Z,0
2016-11-15T06:52:54.688Z,0
2016-11-15T06:53:35.178Z,0
2016-11-15T06:54:15.631Z,0
2016-11-15T06:54:56.120Z,0
2016-11-15T06:55:36.583Z,0
2016-11-15T06:56:17.082Z,0
2016-11-15T06:56:57.727Z,0
2016-11-15T06:57:38.244Z,0
2016-11-15T07:00:25.855Z,0
2016-11-15T07:01:16.721Z,0
2016-11-15T07:02:05.684Z,0
2016-11-15T07:02:54.679Z,0
2016-11-15T07:03:43.881Z,0
2016-11-15T07:04:34.175Z,0
2016-11-15T07:05:23.904Z,0
2016-11-15T07:06:13.936Z,0
2016-11-15T07:07:05.812Z,5
2016-11-15T07:07:57.260Z,5
2016-11-15T07:08:48.991Z,5
2016-11-15T07:09:39.371Z,5
2016-11-15T07:10:27.227Z,5
2016-11-15T07:11:19.420Z,5
2016-11-15T07:12:08.427Z,5
2016-11-15T07:12:57.155Z,5
2016-11-15T07:13:47.303Z,5
2016-11-15T07:14:36.326Z,5
2016-11-15T07:15:41.749Z,5
2016-11-15T07:19:46.373Z,5
2016-11-15T07:20:38.271Z,5
2016-11-15T07:21:31.716Z,5
2016-11-15T07:22:27.519Z,5
2016-11-15T07:23:28.826Z,5
2016-11-15T07:38:59.171Z,20
2016-11-15T07:41:45.792Z,20
2016-11-15T07:42:25.982Z,20
2016-11-15T07:43:06.464Z,20
2016-11-15T07:43:46.962Z,20
2016-11-15T07:44:27.429Z,20
2016-11-15T07:45:07.879Z,20
2016-11-15T07:45:48.629Z,20
2016-11-15T07:46:29.113Z,25
2016-11-15T07:47:09.698Z,25
2016-11-15T07:47:52.227Z,25
2016-11-15T07:48:32.742Z,25
2016-11-15T07:49:13.208Z,25
2016-11-15T07:49:53.731Z,25
2016-11-15T07:50:34.373Z,25
2016-11-15T07:51:14.875Z,25
2016-11-15T07:51:55.355Z,25
2016-11-15T07:52:35.813Z,25
2016-11-15T07:53:16.394Z,25
2016-11-15T07:53:56.844Z,25
2016-11-15T07:54:37.383Z,25
2016-11-15T07:55:18.022Z,25
2016-11-15T07:55:58.534Z,25
2016-11-15T07:56:39.009Z,25
2016-11-15T07:57:19.960Z,25
2016-11-15T07:58:00.566Z,25
2016-11-15T07:58:41.282Z,25
2016-11-15T07:59:21.897Z,25
2016-11-15T08:00:02.516Z,25
2016-11-15T08:00:43.076Z,25
2016-11-15T08:01:23.598Z,25
2016-11-15T08:02:04.059Z,25
2016-11-15T08:02:44.580Z,30
2016-11-15T08:03:25.144Z,25
2016-11-15T08:04:05.599Z,30
2016-11-15T08:04:47.071Z,30
2016-11-15T08:05:27.547Z,30
2016-11-15T08:06:08.027Z,30
2016-11-15T08:06:48.520Z,30
2016-11-15T08:07:28.989Z,30
2016-11-15T08:08:09.479Z,30
2016-11-15T08:08:49.952Z,30
2016-11-15T08:09:30.515Z,30
2016-11-15T08:10:11.210Z,30
2016-11-15T08:10:51.811Z,30
2016-11-15T08:11:32.403Z,30
2016-11-15T08:12:12.908Z,30
2016-11-15T08:12:53.438Z,25
2016-11-15T08:13:33.927Z,30
2016-11-15T08:14:14.415Z,25
2016-11-15T08:14:54.917Z,25
2016-11-15T08:15:35.452Z,25
2016-11-15T08:16:15.970Z,20
2016-11-15T08:16:56.468Z,25
2016-11-15T08:17:36.931Z,25
2016-11-15T08:18:17.407Z,25
2016-11-15T08:18:57.960Z,25
2016-11-15T08:19:38.472Z,30
2016-11-15T08:20:18.947Z,30
2016-11-15T08:20:59.482Z,30
2016-11-15T08:21:39.995Z,30
2016-11-15T08:22:20.438Z,30
2016-11-15T08:23:00.926Z,35
2016-11-15T08:23:41.415Z,35
2016-11-15T08:24:21.893Z,35
2016-11-15T08:25:02.408Z,35
2016-11-15T08:25:42.856Z,35
2016-11-15T08:26:23.326Z,35
2016-11-15T08:27:03.816Z,35
2016-11-15T08:27:44.392Z,35
2016-11-15T08:28:24.892Z,35
2016-11-15T08:29:05.527Z,40
2016-11-15T08:29:46.036Z,40
2016-11-15T08:30:26.497Z,40
2016-11-15T08:31:07.016Z,40
2016-11-15T08:31:47.534Z,40
2016-11-15T08:32:27.988Z,40
2016-11-15T08:33:08.437Z,40
2016-11-15T08:33:48.910Z,45
2016-11-15T08:34:29.380Z,40
2016-11-15T08:35:09.847Z,35
2016-11-15T08:35:50.343Z,35
2016-11-15T08:36:30.843Z,35
2016-11-15T08:37:11.389Z,35
2016-11-15T08:37:51.895Z,35
2016-11-15T08:38:32.438Z,40
2016-11-15T08:39:12.906Z,35
2016-11-15T08:39:53.381Z,35
2016-11-15T08:40:33.887Z,40
2016-11-15T08:41:14.378Z,40
2016-11-15T08:41:54.852Z,40
2016-11-15T08:42:35.400Z,40
2016-11-15T08:43:15.920Z,40
2016-11-15T08:43:56.402Z,40
2016-11-15T08:44:36.868Z,40
2016-11-15T08:45:17.356Z,40
2016-11-15T08:45:57.825Z,35
2016-11-15T08:46:38.401Z,40
2016-11-15T08:47:18.947Z,40
2016-11-15T08:47:59.853Z,40
2016-11-15T08:48:39.947Z,35
2016-11-15T08:49:21.279Z,35
2016-11-15T08:50:01.824Z,35
2016-11-15T08:50:42.326Z,40
2016-11-15T08:51:22.803Z,40
2016-11-15T08:52:03.313Z,35
2016-11-15T08:52:43.739Z,40
2016-11-15T08:53:24.263Z,40
2016-11-15T08:54:04.772Z,40
2016-11-15T08:54:45.441Z,35
2016-11-15T08:55:25.994Z,35
2016-11-15T08:56:06.454Z,35
2016-11-15T08:56:46.968Z,35
2016-11-15T08:57:27.453Z,35
2016-11-15T08:58:07.960Z,35
2016-11-15T08:58:48.444Z,35
2016-11-15T08:59:28.929Z,35
2016-11-15T09:00:09.436Z,35
2016-11-15T09:00:49.952Z,35
2016-11-15T09:01:30.585Z,40
2016-11-15T09:02:11.091Z,40
2016-11-15T09:02:51.654Z,40
2016-11-15T09:03:32.127Z,45
2016-11-15T09:04:12.638Z,45
2016-11-15T09:04:59.043Z,50
2016-11-15T09:05:45.749Z,55
2016-11-15T09:06:29.027Z,55
2016-11-15T09:07:09.461Z,55
2016-11-15T09:07:50.574Z,60
2016-11-15T09:08:31.363Z,55
2016-11-15T09:09:12.039Z,60
2016-11-15T09:09:52.653Z,55
2016-11-15T09:10:33.152Z,60
2016-11-15T09:11:13.769Z,55
2016-11-15T09:11:54.215Z,60
2016-11-15T09:12:34.776Z,55
2016-11-15T09:13:15.574Z,60
2016-11-15T09:13:57.064Z,60
2016-11-15T09:14:37.554Z,60
2016-11-15T09:15:18.021Z,60
2016-11-15T09:15:58.505Z,60
2016-11-15T09:18:33.933Z,60
2016-11-15T09:19:17.919Z,60
2016-11-15T09:20:04.947Z,60
2016-11-15T09:20:50.510Z,65
2016-11-15T09:21:35.938Z,60
2016-11-15T09:22:18.929Z,65
2016-11-15T09:23:02.423Z,65
2016-11-15T09:23:47.450Z,70
2016-11-15T09:26:08.979Z,80
2016-11-15T09:26:53.997Z,80
2016-11-15T09:27:41.499Z,80
2016-11-15T09:28:23.482Z,80
2016-11-15T09:29:08.527Z,75
2016-11-15T09:29:54.003Z,70
2016-11-15T09:30:39.004Z,70
2016-11-15T09:31:21.979Z,65
2016-11-15T09:32:02.214Z,60
2016-11-15T09:32:42.794Z,65
2016-11-15T09:33:23.376Z,65
2016-11-15T09:34:03.854Z,60
2016-11-15T09:34:45.556Z,55
2016-11-15T09:35:26.244Z,60
2016-11-15T09:36:08.818Z,60
2016-11-15T09:36:50.783Z,55
2016-11-15T09:37:31.280Z,55
2016-11-15T09:38:11.742Z,50
2016-11-15T09:38:52.220Z,50
2016-11-15T09:39:32.810Z,50
2016-11-15T09:40:13.279Z,50
2016-11-15T09:40:53.766Z,50
2016-11-15T09:41:34.264Z,50
2016-11-15T09:42:14.748Z,50
2016-11-15T09:42:55.224Z,50
2016-11-15T09:43:35.809Z,50
2016-11-15T09:44:16.289Z,55
2016-11-15T09:44:56.788Z,55
2016-11-15T09:45:37.323Z,60
2016-11-15T09:46:17.770Z,60
2016-11-15T09:46:58.263Z,60
2016-11-15T09:47:38.731Z,60
2016-11-15T09:48:19.205Z,55
2016-11-15T09:48:59.734Z,55
2016-11-15T09:49:40.201Z,55
2016-11-15T09:50:20.899Z,60
2016-11-15T09:51:01.388Z,60
2016-11-15T09:51:41.896Z,60
2016-11-15T09:52:22.381Z,65
2016-11-15T09:53:02.878Z,65
2016-11-15T09:53:43.376Z,60
2016-11-15T09:54:23.883Z,65
2016-11-15T09:55:04.405Z,60
2016-11-15T09:55:44.864Z,60
2016-11-15T09:56:25.411Z,65
2016-11-15T09:57:05.919Z,70
2016-11-15T09:57:46.407Z,75
2016-11-15T09:58:26.881Z,75
2016-11-15T09:59:07.368Z,75
2016-11-15T09:59:47.859Z,80
2016-11-15T10:00:28.379Z,80
2016-11-15T10:01:08.848Z,75
2016-11-15T10:01:49.359Z,80
2016-11-15T10:02:31.795Z,90
2016-11-15T10:03:12.092Z,90
2016-11-15T10:03:52.589Z,85
2016-11-15T10:04:33.101Z,95
2016-11-15T10:05:13.609Z,90
2016-11-15T10:05:54.084Z,95
2016-11-15T10:06:34.600Z,85
2016-11-15T10:07:15.148Z,75
2016-11-15T10:07:55.687Z,70
2016-11-15T10:08:36.166Z,70
2016-11-15T10:09:16.647Z,75
2016-11-15T10:09:57.235Z,70
2016-11-15T10:10:37.746Z,70
2016-11-15T10:11:18.207Z,70
2016-11-15T10:11:58.698Z,75
2016-11-15T10:12:39.317Z,75
2016-11-15T10:13:19.767Z,75
2016-11-15T10:14:00.316Z,70
2016-11-15T10:14:40.859Z,65
2016-11-15T10:15:21.424Z,65
2016-11-15T10:16:01.910Z,65
2016-11-15T10:16:42.419Z,65
2016-11-15T10:17:22.923Z,65
2016-11-15T10:18:03.390Z,60
2016-11-15T10:18:43.941Z,65
2016-11-15T10:19:24.427Z,65
2016-11-15T10:20:04.892Z,65
2016-11-15T10:20:45.577Z,65
2016-11-15T10:21:26.082Z,65
2016-11-15T10:22:06.709Z,70
2016-11-15T10:22:47.206Z,65
2016-11-15T10:23:27.702Z,65
2016-11-15T10:24:08.205Z,65
2016-11-15T10:24:48.768Z,60
2016-11-15T10:25:29.262Z,65
2016-11-15T10:26:09.738Z,70
2016-11-15T10:26:50.267Z,60